Time;durP1;ratioP1;P1;durP2;ratioP2;P2;SDS_P1;SDS_P2;PMS_P1;PMS_P2;Temp;Humidity;BMP_temperature;BMP_pressure;BME280_temperature;BME280_humidity;BME280_pressure;Samples;Min_cycle;Max_cycle;Signal;HPM_P1;HPM_P2
2024/03/29 00:00:44;;;;;;;;;;;;;;;11.37;100.00;98477.05;108215;1253;61002;-64
2024/03/29 00:03:11;;;;;;;8.20;3.60;;;;;;;11.35;100.00;98481.20;108222;1253;59362;-64
2024/03/29 00:05:39;;;;;;;6.30;3.30;;;;;;;11.31;100.00;98483.39;108223;1254;74884;-65
2024/03/29 00:08:06;;;;;;;4.70;3.30;;;;;;;11.30;100.00;98475.95;108178;1254;69194;-65
2024/03/29 00:10:34;;;;;;;7.50;3.40;;;;;;;11.28;100.00;98481.64;108158;1253;72709;-65
2024/03/29 00:13:01;;;;;;;7.00;3.40;;;;;;;11.18;100.00;98476.86;108269;1253;60633;-65
2024/03/29 00:15:29;;;;;;;8.80;3.50;;;;;;;11.14;100.00;98474.82;108254;1254;60466;-64
2024/03/29 00:17:56;;;;;;;9.50;3.90;;;;;;;11.08;100.00;98466.98;107976;1253;75789;-65
2024/03/29 00:20:24;;;;;;;7.90;4.00;;;;;;;11.13;100.00;98471.95;108343;1254;70361;-64
2024/03/29 00:22:51;;;;;;;7.90;3.40;;;;;;;11.14;100.00;98469.26;108169;1254;72331;-64
2024/03/29 00:25:19;;;;;;;9.60;3.80;;;;;;;11.14;100.00;98466.08;108234;1253;60618;-64
2024/03/29 00:27:48;;;;;;;6.70;3.10;;;;;;;11.31;100.00;98464.41;108176;1253;60135;-64
2024/03/29 00:30:15;;;;;;;6.80;3.80;;;;;;;11.15;100.00;98467.06;108210;1254;73805;-64
2024/03/29 00:32:43;;;;;;;9.20;4.30;;;;;;;11.00;100.00;98477.98;108355;1254;68588;-64
2024/03/29 00:35:10;;;;;;;10.30;4.20;;;;;;;10.96;100.00;98479.14;108306;1254;72402;-64
2024/03/29 00:37:38;;;;;;;5.10;4.00;;;;;;;10.98;100.00;98476.22;108187;1253;60570;-64
2024/03/29 00:40:06;;;;;;;10.10;3.90;;;;;;;10.96;100.00;98478.93;108267;1254;60086;-64
2024/03/29 00:42:33;;;;;;;;;;;;;;;10.92;100.00;98483.41;108328;1253;74865;-64
2024/03/29 00:45:01;;;;;;;;;;;;;;;10.86;100.00;98476.91;108241;1254;70318;-64
2024/03/29 00:47:28;;;;;;;9.20;4.10;;;;;;;10.68;100.00;98474.59;108443;1251;72163;-64
2024/03/29 00:49:56;;;;;;;9.20;4.50;;;;;;;10.60;100.00;98472.80;108518;1251;60771;-64
2024/03/29 00:52:23;;;;;;;6.30;4.10;;;;;;;11.28;100.00;98472.65;108343;1251;59737;-64
2024/03/29 00:54:51;;;;;;;9.50;4.90;;;;;;;11.55;100.00;98475.49;108415;1254;73771;-64
2024/03/29 00:57:18;;;;;;;10.70;4.70;;;;;;;10.95;100.00;98476.02;108543;1251;69299;-64
2024/03/29 00:59:46;;;;;;;9.40;4.80;;;;;;;11.03;100.00;98477.57;108491;1251;73260;-64
2024/03/29 01:02:14;;;;;;;;;;;;;;;11.48;100.00;98477.57;108398;1251;60967;-64
2024/03/29 01:04:42;;;;;;;11.60;4.20;;;;;;;10.67;100.00;98480.38;108468;1251;59437;-64
2024/03/29 01:07:09;;;;;;;8.30;4.00;;;;;;;10.64;100.00;98485.35;108445;1251;75855;-64
2024/03/29 01:09:37;;;;;;;11.50;4.60;;;;;;;10.76;100.00;98484.55;108452;1251;69156;-64
2024/03/29 01:12:05;;;;;;;7.40;4.10;;;;;;;11.18;100.00;98471.23;108412;1251;73312;-65
2024/03/29 01:14:32;;;;;;;8.40;5.20;;;;;;;11.66;100.00;98480.04;108414;1251;60289;-64
2024/03/29 01:17:00;;;;;;;8.70;5.00;;;;;;;11.84;100.00;98479.27;108445;1251;59536;-64
2024/03/29 01:19:27;;;;;;;6.10;4.60;;;;;;;10.91;100.00;98476.08;108477;1251;74840;-64
2024/03/29 01:21:55;;;;;;;10.80;5.50;;;;;;;10.69;100.00;98477.29;108205;1251;70061;-64
2024/03/29 01:24:23;;;;;;;10.00;5.00;;;;;;;10.84;100.00;98477.80;108469;1251;73316;-64
2024/03/29 01:26:51;;;;;;;;;;;;;;;10.69;100.00;98473.81;108418;1251;61613;-64
2024/03/29 01:29:18;;;;;;;;;;;;;;;10.61;100.00;98476.22;108546;1251;59454;-64
2024/03/29 01:31:46;;;;;;;10.20;4.80;;;;;;;10.56;100.00;98468.25;108528;1251;73887;-64
2024/03/29 01:34:14;;;;;;;8.10;4.70;;;;;;;10.87;100.00;98479.53;108529;1251;69141;-65
2024/03/29 01:36:41;;;;;;;9.40;4.80;;;;;;;10.96;100.00;98478.77;108462;1251;72295;-64
2024/03/29 01:39:13;;;;;;;12.40;4.80;;;;;;;10.95;100.00;98480.94;108465;1254;61050;-67
2024/03/29 01:41:43;;;;;;;7.90;4.90;;;;;;;11.47;100.00;98471.80;108405;1253;59831;-65
2024/03/29 01:44:11;;;;;;;10.40;5.00;;;;;;;11.13;100.00;98476.86;108397;1251;74352;-64
2024/03/29 01:46:38;;;;;;;10.60;4.30;;;;;;;11.26;100.00;98484.23;108420;1253;68182;-65
2024/03/29 01:49:07;;;;;;;5.90;4.10;;;;;;;11.26;100.00;98483.19;107956;1254;72523;-64
2024/03/29 01:51:36;;;;;;;11.90;4.80;;;;;;;11.16;100.00;98483.52;108179;1254;60862;-64
2024/03/29 01:54:04;;;;;;;8.30;4.60;;;;;;;11.21;100.00;98483.31;107795;1254;59686;-65
2024/03/29 01:56:31;;;;;;;8.00;4.80;;;;;;;11.25;100.00;98485.20;107765;1254;74496;-65
2024/03/29 01:58:59;;;;;;;10.90;5.10;;;;;;;11.23;100.00;98482.83;108237;1253;69625;-65
2024/03/29 02:01:28;;;;;;;7.90;4.50;;;;;;;11.85;100.00;98481.30;108167;1254;72987;-65
2024/03/29 02:03:55;;;;;;;11.00;5.20;;;;;;;11.40;100.00;98478.77;108127;1254;61254;-63
2024/03/29 02:06:23;;;;;;;;;;;;;;;11.18;100.00;98481.94;108361;1253;59715;-65
2024/03/29 02:08:53;;;;;;;11.00;5.00;;;;;;;11.05;100.00;98483.79;108368;1253;74361;-67
2024/03/29 02:11:21;;;;;;;8.30;4.60;;;;;;;11.91;100.00;98479.66;108189;1253;68189;-65
2024/03/29 02:13:49;;;;;;;8.20;4.50;;;;;;;11.35;100.00;98478.92;107959;1254;72928;-65
2024/03/29 02:16:17;;;;;;;9.70;4.20;;;;;;;11.62;100.00;98479.81;108190;1253;60608;-65
2024/03/29 02:18:44;;;;;;;9.90;4.70;;;;;;;11.26;100.00;98477.95;108189;1253;59662;-66
2024/03/29 02:21:12;;;;;;;;;;;;;;;11.21;100.00;98480.32;108139;1254;74490;-66
2024/03/29 02:23:47;;;;;;;10.00;4.40;;;;;;;11.09;100.00;98479.73;108234;1253;68517;-68
2024/03/29 02:26:14;;;;;;;8.50;4.80;;;;;;;11.51;100.00;98473.77;108236;1253;73379;-66
2024/03/29 02:28:42;;;;;;;8.80;4.80;;;;;;;11.22;100.00;98477.11;108189;1254;60666;-67
2024/03/29 02:31:09;;;;;;;13.80;5.80;;;;;;;11.16;100.00;98482.64;108218;1253;59717;-67
2024/03/29 02:33:37;;;;;;;;;;;;;;;11.14;100.00;98482.04;108269;1253;73505;-67
2024/03/29 02:36:05;;;;;;;8.40;5.10;;;;;;;11.33;100.00;98482.03;108246;1253;69853;-67
2024/03/29 02:38:32;;;;;;;6.80;4.50;;;;;;;11.13;100.00;98473.33;108166;1253;72765;-66
2024/03/29 02:41:00;;;;;;;11.10;5.40;;;;;;;11.13;100.00;98475.93;108155;1254;61033;-66
2024/03/29 02:43:28;;;;;;;12.30;5.00;;;;;;;11.11;100.00;98474.84;108209;1253;60155;-67
2024/03/29 02:45:55;;;;;;;;;;;;;;;11.09;100.00;98472.31;108280;1251;74337;-65
2024/03/29 02:48:22;;;;;;;9.70;5.20;;;;;;;11.07;100.00;98473.71;108471;1251;68521;-66
2024/03/29 02:50:50;;;;;;;7.80;4.50;;;;;;;11.14;100.00;98471.70;108423;1251;72415;-66
2024/03/29 02:53:17;;;;;;;7.20;3.80;;;;;;;11.11;100.00;98470.13;108441;1251;60534;-66
2024/03/29 02:55:45;;;;;;;11.30;5.60;;;;;;;11.10;100.00;98469.83;108460;1251;59923;-66
2024/03/29 02:58:12;;;;;;;8.30;4.70;;;;;;;11.11;100.00;98471.52;108453;1251;74570;-66
2024/03/29 03:00:40;;;;;;;7.20;4.50;;;;;;;11.07;100.00;98467.55;108463;1251;69613;-67
2024/03/29 03:03:07;;;;;;;14.50;5.20;;;;;;;11.08;100.00;98468.91;108527;1252;73386;-66
2024/03/29 03:05:35;;;;;;;8.20;3.90;;;;;;;11.14;100.00;98471.83;108421;1253;60617;-67
2024/03/29 03:11:01;;;;;;;8.60;4.60;;;;;;;11.68;100.00;98467.34;108328;1253;73865;-67
2024/03/29 03:13:28;;;;;;;12.20;5.20;;;;;;;11.18;100.00;98465.98;108484;1251;69685;-67
2024/03/29 03:15:56;;;;;;;9.00;5.00;;;;;;;11.11;100.00;98464.35;108494;1253;72523;-66
2024/03/29 03:18:23;;;;;;;10.40;5.10;;;;;;;11.07;100.00;98468.73;108538;1251;61705;-66
2024/03/29 03:20:54;;;;;;;8.50;4.20;;;;;;;11.07;100.00;98470.88;108452;1251;60117;-67
2024/03/29 03:23:22;;;;;;;8.50;3.90;;;;;;;10.94;100.00;98465.45;108438;1251;73896;-70
2024/03/29 03:25:57;;;;;;;9.20;4.10;;;;;;;10.93;100.00;98474.95;108441;1251;69116;-68
2024/03/29 03:28:24;;;;;;;9.10;4.40;;;;;;;10.99;100.00;98481.79;108388;1251;72501;-66
2024/03/29 03:30:54;;;;;;;6.60;4.10;;;;;;;10.99;100.00;98478.75;108483;1251;60735;-68
2024/03/29 03:33:23;;;;;;;10.10;4.50;;;;;;;11.53;100.00;98480.55;108455;1251;59185;-67
2024/03/29 03:35:50;;;;;;;8.30;4.80;;;;;;;11.95;100.00;98476.09;108505;1251;75755;-67
2024/03/29 03:38:18;;;;;;;6.20;4.00;;;;;;;11.29;100.00;98482.15;108466;1251;69304;-66
2024/03/29 03:40:45;;;;;;;9.30;4.30;;;;;;;11.03;100.00;98485.70;108440;1252;72616;-65
2024/03/29 03:43:13;;;;;;;6.10;3.90;;;;;;;11.21;100.00;98484.03;108464;1251;61225;-66
2024/03/29 03:45:40;;;;;;;12.10;4.60;;;;;;;10.98;100.00;98481.30;108495;1251;60745;-65
2024/03/29 03:48:10;;;;;;;15.50;5.30;;;;;;;10.90;100.00;98479.27;108495;1251;74810;-65
2024/03/29 03:50:38;;;;;;;9.70;4.60;;;;;;;10.82;100.00;98479.33;108492;1251;70238;-67
2024/03/29 03:53:05;;;;;;;8.80;4.30;;;;;;;10.82;100.00;98470.85;108515;1251;72189;-68
2024/03/29 03:55:37;;;;;;;;;;;;;;;10.94;100.00;98477.52;108459;1251;60755;-66
2024/03/29 03:58:04;;;;;;;10.50;4.70;;;;;;;11.01;100.00;98473.73;108461;1252;59550;-66
2024/03/29 04:00:32;;;;;;;6.80;4.40;;;;;;;11.07;100.00;98468.96;108490;1251;74442;-66
2024/03/29 04:02:59;;;;;;;9.80;4.60;;;;;;;11.04;100.00;98468.30;108341;1251;69255;-66
2024/03/29 04:05:27;;;;;;;9.00;4.10;;;;;;;11.08;100.00;98465.95;108388;1253;73401;-65
2024/03/29 04:07:55;;;;;;;10.70;4.90;;;;;;;11.10;100.00;98465.42;108396;1251;60857;-65
2024/03/29 04:10:22;;;;;;;8.80;4.20;;;;;;;11.06;100.00;98466.03;108483;1251;60449;-64
2024/03/29 04:12:50;;;;;;;8.10;4.70;;;;;;;11.09;100.00;98464.98;108452;1251;74394;-64
2024/03/29 04:15:18;;;;;;;11.80;4.70;;;;;;;11.14;100.00;98465.35;108413;1251;69800;-65
2024/03/29 04:17:45;;;;;;;9.50;4.40;;;;;;;11.18;100.00;98467.41;108505;1251;72881;-65
2024/03/29 04:20:13;;;;;;;9.70;4.40;;;;;;;11.22;100.00;98468.73;108442;1253;59612;-65
2024/03/29 04:22:41;;;;;;;10.70;5.10;;;;;;;11.23;100.00;98474.06;108460;1251;59340;-64
2024/03/29 04:25:08;;;;;;;8.00;4.10;;;;;;;11.25;100.00;98473.27;108495;1251;74368;-64
2024/03/29 04:27:36;;;;;;;7.80;4.00;;;;;;;11.28;100.00;98477.27;108444;1250;69156;-64
2024/03/29 04:30:03;;;;;;;7.80;4.40;;;;;;;11.34;100.00;98477.60;108434;1253;72219;-64
2024/03/29 04:32:31;;;;;;;8.80;4.20;;;;;;;11.32;100.00;98473.84;108437;1251;60654;-63
2024/03/29 04:34:58;;;;;;;10.00;4.60;;;;;;;11.26;100.00;98471.98;108469;1252;60655;-63
2024/03/29 04:37:26;;;;;;;7.70;4.30;;;;;;;12.00;100.00;98467.08;108447;1251;74130;-64
2024/03/29 04:39:53;;;;;;;15.20;4.80;;;;;;;12.40;100.00;98469.69;108456;1251;70307;-63
2024/03/29 04:42:21;;;;;;;8.80;3.80;;;;;;;11.99;100.00;98470.38;108455;1251;72200;-64
2024/03/29 04:44:48;;;;;;;7.20;4.60;;;;;;;11.81;100.00;98470.13;108559;1251;61379;-63
2024/03/29 04:47:16;;;;;;;8.80;4.20;;;;;;;12.29;100.00;98470.45;108225;1253;60089;-63
2024/03/29 04:49:44;;;;;;;8.90;4.30;;;;;;;11.56;100.00;98481.94;108188;1253;75428;-64
2024/03/29 04:52:11;;;;;;;7.20;4.20;;;;;;;11.42;100.00;98487.27;108236;1253;69355;-64
2024/03/29 04:54:39;;;;;;;8.30;4.00;;;;;;;11.57;100.00;98482.09;108093;1254;72427;-64
2024/03/29 04:57:06;;;;;;;6.60;4.00;;;;;;;12.37;100.00;98481.16;108304;1253;60628;-69
2024/03/29 04:59:34;;;;;;;8.40;4.20;;;;;;;12.26;100.00;98480.33;108191;1253;60655;-64
2024/03/29 05:02:02;;;;;;;7.90;4.10;;;;;;;12.42;100.00;98483.61;108209;1254;74513;-65
2024/03/29 05:04:29;;;;;;;8.20;5.00;;;;;;;12.07;100.00;98482.14;108295;1253;69730;-65
2024/03/29 05:06:57;;;;;;;7.60;4.30;;;;;;;11.68;100.00;98481.85;108237;1253;72420;-64
2024/03/29 05:09:25;;;;;;;8.90;3.90;;;;;;;11.69;100.00;98477.25;108176;1253;61432;-64
2024/03/29 05:11:52;;;;;;;;;;;;;;;11.26;100.00;98481.06;108192;1253;59682;-65
2024/03/29 05:14:22;;;;;;;9.30;4.20;;;;;;;11.18;100.00;98477.92;108190;1253;75333;-64
2024/03/29 05:16:49;;;;;;;9.40;4.50;;;;;;;11.31;100.00;98482.36;108206;1253;69535;-64
2024/03/29 05:19:17;;;;;;;8.00;4.20;;;;;;;11.31;100.00;98477.61;108182;1254;72931;-64
2024/03/29 05:21:44;;;;;;;10.60;4.50;;;;;;;11.42;100.00;98476.55;108241;1253;61402;-64
2024/03/29 05:24:12;;;;;;;11.40;4.80;;;;;;;11.46;100.00;98475.20;108300;1253;60129;-64
2024/03/29 05:26:40;;;;;;;8.60;4.20;;;;;;;11.74;100.00;98472.67;108229;1253;73278;-64
2024/03/29 05:29:07;;;;;;;8.60;3.80;;;;;;;11.86;100.00;98467.52;108204;1253;69016;-64
2024/03/29 05:31:35;;;;;;;8.30;4.60;;;;;;;11.99;100.00;98462.27;108180;1253;72337;-64
2024/03/29 05:34:03;;;;;;;10.90;3.90;;;;;;;11.84;100.00;98461.16;108280;1253;61438;-64
2024/03/29 05:36:30;;;;;;;7.10;3.70;;;;;;;12.45;100.00;98457.20;108149;1253;59249;-64
2024/03/29 05:38:58;;;;;;;7.00;4.10;;;;;;;11.92;100.00;98455.91;108183;1253;74891;-64
2024/03/29 05:41:26;;;;;;;10.60;3.80;;;;;;;11.78;100.00;98450.67;108260;1253;69344;-64
2024/03/29 05:43:53;;;;;;;9.20;4.30;;;;;;;11.64;100.00;98453.71;108194;1253;72397;-64
2024/03/29 05:46:20;;;;;;;11.10;5.00;;;;;;;11.65;100.00;98454.31;108365;1251;63999;-64
2024/03/29 05:48:48;;;;;;;7.40;4.60;;;;;;;11.69;100.00;98451.45;108480;1251;59627;-63
2024/03/29 05:51:15;;;;;;;11.00;5.00;;;;;;;11.65;100.00;98454.67;108484;1251;75307;-63
2024/03/29 05:53:43;;;;;;;14.30;6.00;;;;;;;11.65;100.00;98457.30;108445;1251;69501;-63
2024/03/29 05:56:11;;;;;;;9.80;5.30;;;;;;;11.79;100.00;98464.45;108421;1253;72905;-64
2024/03/29 06:03:48;;;;;;;9.00;5.10;;;;;;;11.85;100.00;98480.91;101563;1293;601192;-62
2024/03/29 06:06:17;;;;;;;;;;;;;;;12.10;100.00;98492.84;104294;1263;62352;-63
2024/03/29 06:08:45;;;;;;;6.50;3.80;;;;;;;11.99;100.00;98498.30;104079;1266;60431;-62
2024/03/29 06:11:12;;;;;;;10.40;4.10;;;;;;;12.01;100.00;98497.63;103802;1266;72706;-63
2024/03/29 06:19:08;;;;;;;8.20;4.20;;;;;;;12.15;100.00;98510.10;107287;1262;61824;-64
2024/03/29 06:21:39;;;;;;;9.80;4.20;;;;;;;12.16;100.00;98511.25;107162;1261;59666;-64
2024/03/29 06:24:12;;;;;;;9.60;3.90;;;;;;;12.21;100.00;98510.37;107144;1261;73043;-69
2024/03/29 06:26:40;;;;;;;8.50;3.80;;;;;;;12.23;100.00;98513.21;107202;1261;69086;-63
2024/03/29 06:29:11;;;;;;;8.50;4.10;;;;;;;12.04;100.00;98505.90;107152;1261;72441;-65
2024/03/29 06:31:38;;;;;;;6.70;3.80;;;;;;;11.83;100.00;98512.00;107199;1261;61649;-64
2024/03/29 06:34:07;;;;;;;10.30;4.30;;;;;;;11.79;100.00;98528.56;107289;1261;59686;-63
2024/03/29 06:36:35;;;;;;;7.40;3.80;;;;;;;11.78;100.00;98535.80;107194;1261;73635;-64
2024/03/29 06:39:03;;;;;;;7.20;4.20;;;;;;;11.80;100.00;98543.41;107900;1256;69699;-63
2024/03/29 06:41:31;;;;;;;7.50;4.30;;;;;;;11.93;100.00;98558.23;107842;1256;72964;-63
2024/03/29 06:43:59;;;;;;;7.50;3.70;;;;;;;12.00;100.00;98568.69;107880;1256;62052;-64
2024/03/29 06:46:26;;;;;;;7.40;4.30;;;;;;;12.08;100.00;98574.46;108025;1254;60058;-65
2024/03/29 06:48:54;;;;;;;10.60;4.10;;;;;;;12.34;100.00;98563.44;107865;1254;72532;-59
2024/03/29 06:51:22;;;;;;;8.60;4.30;;;;;;;12.44;100.00;98561.48;107898;1257;70259;-60
2024/03/29 06:53:51;;;;;;;8.20;4.40;;;;;;;12.47;100.00;98556.77;107944;1254;72467;-58
2024/03/29 06:56:19;;;;;;;9.50;4.10;;;;;;;12.43;100.00;98555.96;107790;1253;61695;-59
2024/03/29 06:58:47;;;;;;;6.70;3.90;;;;;;;12.42;100.00;98553.59;107925;1253;59982;-59
2024/03/29 07:01:15;;;;;;;7.70;4.10;;;;;;;12.45;100.00;98551.41;107997;1253;74663;-60
2024/03/29 07:03:43;;;;;;;6.90;3.80;;;;;;;12.36;100.00;98547.13;108497;1251;69781;-61
2024/03/29 07:06:11;;;;;;;8.20;4.20;;;;;;;12.38;100.00;98543.30;108450;1251;75291;-59
2024/03/29 07:08:38;;;;;;;8.00;4.00;;;;;;;12.26;100.00;98538.16;108522;1251;63468;-60
2024/03/29 07:11:06;;;;;;;6.60;4.30;;;;;;;11.94;100.00;98539.19;108550;1250;60752;-63
2024/03/29 07:13:34;;;;;;;10.20;4.40;;;;;;;11.97;100.00;98542.98;108536;1251;72683;-62
2024/03/29 07:16:02;;;;;;;6.80;3.70;;;;;;;11.88;100.00;98543.81;107928;1250;70660;-60
2024/03/29 07:18:30;;;;;;;7.00;4.80;;;;;;;11.77;100.00;98539.94;108265;1251;72552;-61
2024/03/29 07:20:58;;;;;;;8.30;4.80;;;;;;;11.85;100.00;98532.58;108452;1250;61389;-61
2024/03/29 07:23:26;;;;;;;11.20;4.80;;;;;;;11.95;100.00;98532.98;108332;1251;59766;-60
2024/03/29 07:26:02;;;;;;;9.20;5.00;;;;;;;12.02;100.00;98536.19;107933;1251;72618;-61
2024/03/29 07:28:30;;;;;;;8.80;5.10;;;;;;;11.99;100.00;98534.81;108340;1250;69177;-61
2024/03/29 07:31:04;;;;;;;;;;;;;;;11.90;100.00;98529.64;108456;1251;74815;-63
2024/03/29 07:33:32;;;;;;;54.30;26.70;;;;;;;11.95;100.00;98534.04;108133;1251;63462;-60
2024/03/29 07:36:00;;;;;;;40.90;17.80;;;;;;;11.89;100.00;98532.51;108409;1251;61178;-61
2024/03/29 07:38:29;;;;;;;21.20;10.70;;;;;;;11.89;100.00;98542.14;108432;1251;74654;-61
2024/03/29 07:40:57;;;;;;;24.70;12.70;;;;;;;12.08;100.00;98554.58;108109;1251;69757;-61
2024/03/29 07:43:40;;;;;;;18.40;11.90;;;;;;;11.95;100.00;98554.24;108005;1250;73623;-61
2024/03/29 07:46:08;;;;;;;15.40;10.80;;;;;;;11.91;100.00;98558.38;108266;1251;61989;-61
2024/03/29 07:48:37;;;;;;;24.50;13.60;;;;;;;11.94;100.00;98561.52;107960;1250;62295;-62
2024/03/29 07:51:05;;;;;;;17.40;10.60;;;;;;;11.92;100.00;98561.80;108042;1251;75102;-62
2024/03/29 07:53:34;;;;;;;10.70;6.60;;;;;;;11.92;100.00;98547.05;108290;1254;71491;-60
2024/03/29 07:56:03;;;;;;;8.40;6.00;;;;;;;11.92;100.00;98542.33;107897;1251;75043;-60
2024/03/29 07:58:33;;;;;;;7.70;5.30;;;;;;;11.96;100.00;98539.43;108159;1251;63768;-60
2024/03/29 08:01:01;;;;;;;8.40;5.00;;;;;;;11.97;100.00;98526.39;107918;1251;60896;-60
2024/03/29 08:03:28;;;;;;;8.20;5.20;;;;;;;11.97;100.00;98520.95;108420;1251;76951;-60
2024/03/29 08:06:04;;;;;;;5.00;4.40;;;;;;;11.97;100.00;98528.08;108487;1250;70391;-60
2024/03/29 08:08:33;;;;;;;6.30;3.70;;;;;;;12.01;100.00;98518.69;108008;1251;73800;-60
2024/03/29 08:11:01;;;;;;;8.60;4.50;;;;;;;12.20;100.00;98513.27;108386;1251;61752;-60
2024/03/29 08:13:30;;;;;;;8.00;4.30;;;;;;;12.42;100.00;98519.83;107940;1259;61859;-61
2024/03/29 08:16:01;;;;;;;;;;;;;;;12.48;100.00;98515.55;108498;1251;75405;-61
2024/03/29 08:18:31;;;;;;;6.90;3.80;;;;;;;12.46;100.00;98521.52;107963;1250;69679;-60
2024/03/29 08:20:59;;;;;;;7.00;4.10;;;;;;;12.49;100.00;98514.41;108069;1251;74009;-60
2024/03/29 08:23:27;;;;;;;6.70;4.40;;;;;;;12.47;100.00;98513.33;108440;1251;61887;-61
2024/03/29 08:25:55;;;;;;;7.70;4.70;;;;;;;12.45;100.00;98504.86;108061;1250;60615;-64
2024/03/29 08:28:24;;;;;;;6.70;5.30;;;;;;;12.36;100.00;98507.44;108013;1251;75774;-60
2024/03/29 08:30:59;;;;;;;5.70;4.30;;;;;;;12.31;100.00;98510.02;108068;1251;70594;-60
2024/03/29 08:33:30;;;;;;;7.70;4.90;;;;;;;12.36;100.00;98496.89;108433;1251;74783;-62
2024/03/29 08:35:58;;;;;;;7.00;4.50;;;;;;;12.36;100.00;98490.54;108197;1250;62356;-62
2024/03/29 08:38:26;;;;;;;8.40;4.60;;;;;;;12.34;100.00;98492.25;108116;1251;59830;-62
2024/03/29 08:40:54;;;;;;;8.70;4.50;;;;;;;12.34;100.00;98495.77;108216;1250;74653;-61
2024/03/29 08:43:23;;;;;;;7.60;4.90;;;;;;;12.31;100.00;98487.00;108220;1256;70025;-61
2024/03/29 08:45:50;;;;;;;;;;;;;;;12.35;100.00;98489.24;108143;1254;73141;-61
2024/03/29 08:48:18;;;;;;;6.50;5.20;;;;;;;12.45;100.00;98480.61;108420;1250;63871;-62
2024/03/29 08:50:47;;;;;;;8.20;6.10;;;;;;;12.47;100.00;98473.77;108172;1250;60010;-62
2024/03/29 08:53:18;;;;;;;8.80;6.00;;;;;;;12.45;100.00;98469.55;108071;1250;74669;-61
2024/03/29 08:55:46;;;;;;;7.80;6.00;;;;;;;12.44;100.00;98469.59;108242;1250;71692;-64
2024/03/29 08:58:14;;;;;;;14.50;5.80;;;;;;;12.46;100.00;98471.75;108220;1251;72514;-61
2024/03/29 09:00:42;;;;;;;14.20;7.20;;;;;;;12.48;100.00;98476.71;108400;1251;61628;-61
2024/03/29 09:03:09;;;;;;;13.10;6.20;;;;;;;12.48;100.00;98470.75;108513;1251;58749;-61
2024/03/29 09:05:37;;;;;;;9.80;5.80;;;;;;;12.50;100.00;98477.85;108457;1251;73652;-61
2024/03/29 09:08:04;;;;;;;9.40;5.90;;;;;;;12.50;100.00;98483.23;108433;1250;68307;-62
2024/03/29 09:10:32;;;;;;;10.30;5.70;;;;;;;12.49;100.00;98484.02;108427;1251;74507;-62
2024/03/29 09:13:00;;;;;;;9.40;5.20;;;;;;;12.53;100.00;98477.64;108438;1251;61678;-63
2024/03/29 09:15:28;;;;;;;10.60;5.90;;;;;;;12.55;100.00;98476.95;108476;1251;60686;-63
2024/03/29 09:17:56;;;;;;;8.50;5.00;;;;;;;12.61;100.00;98475.96;108406;1251;74274;-62
2024/03/29 09:20:24;;;;;;;4.80;4.40;;;;;;;12.68;100.00;98479.92;108460;1251;69557;-61
2024/03/29 09:22:52;;;;;;;7.30;4.90;;;;;;;12.69;100.00;98484.90;108524;1250;73476;-62
2024/03/29 09:25:20;;;;;;;5.10;4.50;;;;;;;12.72;100.00;98485.04;108503;1251;61641;-61
2024/03/29 09:27:48;;;;;;;6.60;5.30;;;;;;;12.78;100.00;98475.69;108472;1251;59811;-62
2024/03/29 09:30:16;;;;;;;10.30;5.70;;;;;;;12.82;100.00;98470.48;108106;1251;76304;-61
2024/03/29 09:32:44;;;;;;;8.90;5.40;;;;;;;12.84;100.00;98465.09;108525;1251;70199;-62
2024/03/29 09:35:11;;;;;;;8.70;5.80;;;;;;;12.87;100.00;98461.32;108506;1250;71719;-61
2024/03/29 09:37:39;;;;;;;8.00;5.40;;;;;;;12.84;100.00;98463.67;108488;1251;62520;-61
2024/03/29 09:40:08;;;;;;;8.10;5.20;;;;;;;12.84;100.00;98461.38;108501;1250;59835;-61
2024/03/29 09:42:36;;;;;;;6.30;5.20;;;;;;;12.93;100.00;98456.04;108281;1251;73876;-62
2024/03/29 09:45:04;;;;;;;8.30;5.00;;;;;;;12.99;100.00;98455.58;108296;1250;69856;-63
2024/03/29 09:47:32;;;;;;;7.30;5.20;;;;;;;13.08;100.00;98450.84;108335;1251;72504;-62
2024/03/29 09:50:00;;;;;;;6.40;5.10;;;;;;;13.23;100.00;98444.83;108299;1251;60752;-61
2024/03/29 09:52:28;;;;;;;9.20;5.20;;;;;;;13.34;100.00;98442.52;108322;1251;61875;-62
2024/03/29 09:54:56;;;;;;;;;;;;;;;13.42;100.00;98444.06;108495;1251;76106;-61
2024/03/29 09:57:30;;;;;;;10.60;4.70;;;;;;;13.53;100.00;98455.02;108386;1250;70220;-61
2024/03/29 09:59:57;;;;;;;9.80;5.10;;;;;;;13.68;100.00;98456.25;108478;1251;73883;-60
2024/03/29 10:02:28;;;;;;;5.00;3.70;;;;;;;13.81;100.00;98458.59;108271;1253;60887;-62
2024/03/29 10:04:56;;;;;;;12.70;4.40;;;;;;;13.97;100.00;98465.48;108092;1253;59809;-62
2024/03/29 10:07:24;;;;;;;5.50;4.00;;;;;;;14.07;100.00;98458.95;108413;1253;73921;-61
2024/03/29 10:09:52;;;;;;;9.60;4.40;;;;;;;14.10;100.00;98455.14;108464;1254;68549;-61
2024/03/29 10:12:19;;;;;;;;;;;;;;;14.12;100.00;98454.49;108413;1253;72529;-65
2024/03/29 10:14:59;;;;;;;12.40;7.20;;;;;;;14.19;100.00;98457.15;108381;1253;62229;-61
2024/03/29 10:17:27;;;;;;;9.20;5.20;;;;;;;14.30;100.00;98459.98;108293;1252;60480;-62
2024/03/29 10:20:00;;;;;;;9.20;5.30;;;;;;;14.41;100.00;98455.81;108067;1253;75462;-60
2024/03/29 10:22:27;;;;;;;8.90;5.30;;;;;;;14.53;100.00;98454.69;108378;1253;69502;-61
2024/03/29 10:24:58;;;;;;;7.90;5.10;;;;;;;14.59;100.00;98462.70;108346;1254;73113;-61
2024/03/29 10:27:27;;;;;;;7.50;4.60;;;;;;;14.64;100.00;98462.30;107808;1256;60631;-60
2024/03/29 10:29:54;;;;;;;7.60;4.50;;;;;;;14.60;100.00;98457.52;108386;1252;59967;-60
2024/03/29 10:32:22;;;;;;;10.40;4.50;;;;;;;14.80;100.00;98456.46;108368;1254;74204;-60
2024/03/29 10:34:49;;;;;;;6.30;3.60;;;;;;;14.92;100.00;98462.63;108313;1253;69260;-62
2024/03/29 10:37:25;;;;;;;5.90;3.70;;;;;;;14.93;100.00;98469.77;108322;1253;72555;-62
2024/03/29 10:39:53;;;;;;;9.20;4.80;;;;;;;14.89;100.00;98469.92;108219;1254;63914;-62
2024/03/29 10:42:20;;;;;;;7.00;3.70;;;;;;;14.85;100.00;98474.08;108244;1252;59722;-62
2024/03/29 10:44:51;;;;;;;3.20;2.70;;;;;;;14.79;100.00;98478.21;108245;1254;74793;-63
2024/03/29 10:47:20;;;;;;;6.60;3.60;;;;;;;14.73;100.00;98479.59;107962;1254;70363;-62
2024/03/29 10:49:49;;;;;;;5.80;3.70;;;;;;;14.46;100.00;98479.90;108196;1254;72707;-62
2024/03/29 10:52:17;;;;;;;5.70;3.20;;;;;;;14.47;100.00;98481.98;108285;1254;61784;-63
2024/03/29 10:54:45;;;;;;;4.70;3.60;;;;;;;14.47;100.00;98486.23;108300;1252;59717;-62
2024/03/29 10:57:19;;;;;;;7.30;3.60;;;;;;;14.45;100.00;98490.73;108332;1253;74463;-61
2024/03/29 11:00:04;;;;;;;4.70;3.00;;;;;;;14.22;100.00;98491.98;108241;1254;69914;-63
2024/03/29 11:02:56;;;;;;;6.60;3.20;;;;;;;13.94;100.00;98501.64;108278;1251;72706;-61
2024/03/29 11:05:24;;;;;;;5.90;3.10;;;;;;;14.02;100.00;98506.88;107980;1255;61584;-63
2024/03/29 11:07:51;;;;;;;5.50;3.00;;;;;;;13.81;100.00;98510.37;108336;1253;60296;-62
2024/03/29 11:10:26;;;;;;;5.50;3.20;;;;;;;13.62;100.00;98515.27;108366;1251;73394;-62
2024/03/29 11:12:58;;;;;;;4.20;3.20;;;;;;;13.73;100.00;98522.91;108443;1252;69031;-62
2024/03/29 11:15:30;;;;;;;4.20;3.40;;;;;;;13.55;100.00;98516.63;108431;1251;73486;-61
2024/03/29 11:17:57;;;;;;;6.10;3.50;;;;;;;13.74;100.00;98529.89;108512;1251;61627;-62
2024/03/29 11:20:34;;;;;;;7.20;3.70;;;;;;;13.85;100.00;98535.10;108398;1251;60098;-60
2024/03/29 11:23:11;;;;;;;6.10;4.40;;;;;;;13.91;100.00;98536.02;108488;1251;74736;-61
2024/03/29 11:25:43;;;;;;;5.80;4.00;;;;;;;14.08;100.00;98538.34;108264;1258;71960;-61
2024/03/29 11:28:13;;;;;;;5.20;4.40;;;;;;;14.16;100.00;98540.51;108466;1254;73252;-61
2024/03/29 11:30:47;;;;;;;4.20;3.60;;;;;;;14.13;100.00;98543.41;108454;1251;61689;-60
2024/03/29 11:33:32;;;;;;;5.70;4.10;;;;;;;14.29;100.00;98551.19;108433;1253;60017;-60
2024/03/29 11:36:12;;;;;;;5.80;4.00;;;;;;;14.19;100.00;98553.70;108412;1251;74452;-60
2024/03/29 11:38:40;;;;;;;7.20;4.40;;;;;;;14.03;100.00;98557.37;108479;1252;70733;-60